Time;durP1;ratioP1;P1;durP2;ratioP2;P2;SDS_P1;SDS_P2;PMS_P1;PMS_P2;Temp;Humidity;BMP_temperature;BMP_pressure;BME280_temperature;BME280_humidity;BME280_pressure;Samples;Min_cycle;Max_cycle;Signal;HPM_P1;HPM_P2
2021/12/19 00:01:30;;;;;;;15.10;4.20;;;;;;;6.64;100.00;101803.25;5059958;28;20075;-79
2021/12/19 00:09:29;;;;;;;13.40;3.67;;;;;;;6.64;100.00;101798.00;5061298;28;20559;-83
2021/12/19 00:11:58;;;;;;;17.27;3.97;;;;;;;6.68;100.00;101790.94;5048458;28;20041;-79
2021/12/19 00:14:27;;;;;;;17.05;4.38;;;;;;;6.68;100.00;101785.72;5041762;28;20049;-80
2021/12/19 00:16:54;;;;;;;14.23;3.38;;;;;;;6.68;100.00;101780.47;5060714;28;20449;-79
2021/12/19 00:19:22;;;;;;;12.25;3.42;;;;;;;6.68;100.00;101783.09;5045699;28;20451;-80
2021/12/19 00:21:50;;;;;;;16.88;4.43;;;;;;;6.66;100.00;101769.16;5062892;28;20474;-81
2021/12/19 00:24:17;;;;;;;12.45;3.22;;;;;;;6.63;100.00;101764.91;5061067;28;20052;-80
2021/12/19 00:26:45;;;;;;;13.80;3.10;;;;;;;6.66;100.00;101758.72;5046748;28;20053;-79
2021/12/19 00:29:13;;;;;;;10.63;2.90;;;;;;;6.69;100.00;101756.03;5059107;28;20047;-80
2021/12/19 00:31:41;;;;;;;12.40;2.97;;;;;;;6.61;100.00;101756.19;5059630;28;20050;-79
2021/12/19 00:34:08;;;;;;;10.63;2.92;;;;;;;6.64;100.00;101765.75;5058003;28;20144;-79
2021/12/19 00:36:35;;;;;;;10.75;2.80;;;;;;;6.72;100.00;101771.66;5059518;28;20082;-80
2021/12/19 00:39:03;;;;;;;14.45;3.53;;;;;;;6.71;100.00;101755.09;5065530;28;20131;-79
2021/12/19 00:41:30;;;;;;;11.27;2.70;;;;;;;6.71;100.00;101752.50;5060004;28;20143;-78
2021/12/19 00:44:08;;;;;;;7.00;2.92;;;;;;;6.63;100.00;101743.09;5064556;28;20139;-82
2021/12/19 00:46:44;;;;;;;10.60;2.63;;;;;;;6.62;100.00;101754.44;5057404;28;20106;-79
2021/12/19 00:49:19;;;;;;;16.70;3.42;;;;;;;6.64;100.00;101750.06;5058197;28;20569;-81
2021/12/19 00:51:47;;;;;;;12.13;2.92;;;;;;;6.60;100.00;101746.63;5066853;28;20117;-77
2021/12/19 00:54:14;;;;;;;10.45;3.50;;;;;;;6.61;100.00;101740.50;5084325;28;20493;-80
2021/12/19 00:56:49;;;;;;;20.35;3.80;;;;;;;6.65;100.00;101739.53;5061786;28;20191;-79
2021/12/19 00:59:20;;;;;;;21.00;3.97;;;;;;;6.64;100.00;101748.28;5051071;28;20406;-80
2021/12/19 01:01:48;;;;;;;12.95;3.60;;;;;;;6.65;100.00;101742.16;5089201;28;20406;-79
2021/12/19 01:04:17;;;;;;;13.98;3.53;;;;;;;6.59;100.00;101731.84;5036517;28;20072;-80
2021/12/19 01:06:46;;;;;;;12.63;3.78;;;;;;;6.62;100.00;101725.66;5048075;28;20484;-78
2021/12/19 01:09:15;;;;;;;14.55;3.90;;;;;;;6.62;100.00;101728.28;5059779;28;20136;-82
2021/12/19 01:11:47;;;;;;;13.02;4.10;;;;;;;6.59;100.00;101730.09;5066399;28;20086;-80
2021/12/19 01:14:17;;;;;;;9.68;3.45;;;;;;;6.60;100.00;101725.72;5079785;28;20040;-79
2021/12/19 01:16:44;;;;;;;15.30;4.70;;;;;;;6.63;100.00;101704.72;5062699;28;20131;-80
2021/12/19 01:19:11;;;;;;;12.23;4.00;;;;;;;6.58;100.00;101714.44;5078933;28;20114;-78
2021/12/19 01:21:39;;;;;;;16.08;4.65;;;;;;;6.52;100.00;101720.66;5033210;28;20044;-79
2021/12/19 01:24:08;;;;;;;9.45;3.90;;;;;;;6.48;100.00;101703.31;5058961;28;20062;-81
2021/12/19 01:26:35;;;;;;;12.55;3.95;;;;;;;6.46;100.00;101706.88;5050042;28;20444;-81
2021/12/19 01:29:03;;;;;;;9.82;3.95;;;;;;;6.51;100.00;101699.78;5081189;28;20445;-81
2021/12/19 01:31:30;;;;;;;13.30;4.32;;;;;;;6.46;100.00;101706.88;5064011;28;20139;-79
2021/12/19 01:33:58;;;;;;;11.50;4.40;;;;;;;6.46;100.00;101689.44;5051512;28;20059;-82
2021/12/19 01:36:26;;;;;;;15.60;4.47;;;;;;;6.45;100.00;101690.34;5079354;28;20052;-77
2021/12/19 01:38:53;;;;;;;7.60;3.90;;;;;;;6.45;100.00;101703.41;5067260;28;20491;-83
2021/12/19 01:41:20;;;;;;;16.65;5.97;;;;;;;6.45;100.00;101681.63;5064854;28;20079;-79
2021/12/19 01:43:47;;;;;;;10.85;4.80;;;;;;;6.41;100.00;101670.38;5046176;28;20357;-79
2021/12/19 01:46:15;;;;;;;16.17;5.88;;;;;;;6.48;100.00;101679.78;5063340;28;20123;-80
2021/12/19 01:48:44;;;;;;;10.98;5.28;;;;;;;6.42;100.00;101679.94;5049400;28;20161;-83
2021/12/19 01:51:12;;;;;;;11.40;6.15;;;;;;;6.43;100.00;101672.94;5083495;28;20075;-79
2021/12/19 01:53:39;;;;;;;14.73;5.20;;;;;;;6.49;100.00;101672.81;5043224;28;20040;-82
2021/12/19 01:56:07;;;;;;;12.98;6.00;;;;;;;6.47;100.00;101667.59;5031068;28;20135;-79
2021/12/19 01:58:37;;;;;;;13.02;5.85;;;;;;;6.49;100.00;101663.22;5072273;28;20079;-81
2021/12/19 02:01:07;;;;;;;14.15;5.30;;;;;;;6.49;100.00;101662.34;5066703;28;20052;-79
2021/12/19 02:03:35;;;;;;;13.18;6.47;;;;;;;6.44;100.00;101646.78;5066878;28;20055;-81
2021/12/19 02:06:03;;;;;;;13.95;5.57;;;;;;;6.44;100.00;101638.03;5064845;28;20087;-79
2021/12/19 02:08:30;;;;;;;13.70;5.95;;;;;;;6.46;100.00;101637.13;5064666;28;20115;-83
2021/12/19 02:10:58;;;;;;;12.88;5.25;;;;;;;6.43;100.00;101645.03;5032929;28;20052;-81
2021/12/19 02:13:25;;;;;;;15.27;5.65;;;;;;;6.39;100.00;101640.78;5042200;28;20113;-79
2021/12/19 02:15:55;;;;;;;7.88;4.82;;;;;;;6.38;100.00;101646.06;5051361;28;20048;-79
2021/12/19 02:18:22;;;;;;;13.05;5.57;;;;;;;6.46;100.00;101631.88;5029327;28;20048;-80
2021/12/19 02:20:55;;;;;;;8.93;4.50;;;;;;;6.44;100.00;101633.69;5047257;28;20040;-79
2021/12/19 02:23:24;;;;;;;11.35;4.22;;;;;;;6.42;100.00;101632.84;5039873;28;20045;-79
2021/12/19 02:25:53;;;;;;;10.20;4.30;;;;;;;6.39;100.00;101634.69;5044231;28;20044;-80
2021/12/19 02:28:21;;;;;;;11.40;3.95;;;;;;;6.41;100.00;101633.75;5061292;28;20151;-80
2021/12/19 02:30:49;;;;;;;10.85;4.00;;;;;;;6.44;100.00;101652.00;5046395;28;20148;-79
2021/12/19 02:33:20;;;;;;;9.70;3.35;;;;;;;6.42;100.00;101666.00;5079789;28;20036;-83
2021/12/19 02:35:57;;;;;;;11.73;3.25;;;;;;;6.42;100.00;101651.16;5041876;28;20364;-80
2021/12/19 02:49:32;;;;;;;6.40;2.83;;;;;;;6.44;100.00;101618.00;5062460;28;20054;-79
2021/12/19 02:52:01;;;;;;;8.15;2.80;;;;;;;6.40;100.00;101624.22;5056780;28;20067;-81
2021/12/19 02:54:29;;;;;;;14.15;3.58;;;;;;;6.43;100.00;101631.09;5074675;28;20140;-79
2021/12/19 02:56:57;;;;;;;9.00;2.60;;;;;;;6.43;100.00;101633.72;5049829;28;20056;-80
2021/12/19 02:59:24;;;;;;;8.30;2.65;;;;;;;6.46;100.00;101623.19;5059238;28;20143;-79
2021/12/19 03:01:52;;;;;;;6.95;2.30;;;;;;;6.45;100.00;101595.31;5025290;28;20304;-81
2021/12/19 03:04:19;;;;;;;5.28;2.08;;;;;;;6.48;100.00;101592.59;5065393;28;20177;-78
2021/12/19 03:06:48;;;;;;;10.57;2.85;;;;;;;6.51;100.00;101577.69;5065917;28;20402;-79
2021/12/19 03:09:29;;;;;;;8.68;2.55;;;;;;;6.49;100.00;101563.81;5065655;28;20040;-80
2021/12/19 03:20:15;;;;;;;7.57;2.20;;;;;;;6.49;100.00;101569.03;5077616;28;20048;-79
2021/12/19 03:22:42;;;;;;;6.72;1.98;;;;;;;6.56;100.00;101554.88;5060711;28;20052;-82
2021/12/19 03:25:10;;;;;;;7.75;2.05;;;;;;;6.50;100.00;101568.13;5058234;28;20047;-79
2021/12/19 03:27:37;;;;;;;5.05;1.60;;;;;;;6.50;100.00;101567.28;5065175;28;20151;-80
2021/12/19 03:30:07;;;;;;;7.95;2.70;;;;;;;6.47;100.00;101573.44;5043370;28;20471;-80
2021/12/19 03:32:35;;;;;;;4.28;1.70;;;;;;;6.51;100.00;101582.06;5062947;28;20599;-80
2021/12/19 03:35:03;;;;;;;6.43;1.85;;;;;;;6.50;100.00;101568.13;5055085;28;20044;-84
2021/12/19 03:37:31;;;;;;;3.40;1.42;;;;;;;6.50;100.00;101581.22;5064115;28;20048;-80
2021/12/19 03:40:09;;;;;;;5.55;2.28;;;;;;;6.48;100.00;101566.44;5063502;28;20122;-80
2021/12/19 03:42:44;;;;;;;4.60;1.67;;;;;;;6.48;100.00;101572.53;5061675;28;20040;-80
2021/12/19 03:45:15;;;;;;;5.57;1.88;;;;;;;6.49;100.00;101583.88;5041120;28;20399;-79
2021/12/19 03:47:44;;;;;;;7.72;2.30;;;;;;;6.51;100.00;101561.13;5061380;28;20127;-79
2021/12/19 03:50:17;;;;;;;3.08;2.00;;;;;;;6.51;100.00;101566.38;5042950;28;20545;-78
2021/12/19 03:52:46;;;;;;;5.20;1.83;;;;;;;6.53;100.00;101544.50;5043103;28;20051;-78
2021/12/19 03:55:14;;;;;;;3.28;1.70;;;;;;;6.50;100.00;101556.81;5058799;28;20053;-78
2021/12/19 03:57:41;;;;;;;5.75;2.28;;;;;;;6.46;100.00;101542.94;5063512;28;20076;-79
2021/12/19 04:00:12;;;;;;;4.25;2.05;;;;;;;6.47;100.00;101538.56;5055216;28;20055;-80
2021/12/19 04:02:39;;;;;;;6.45;2.75;;;;;;;6.47;100.00;101536.81;5045978;28;20044;-79
2021/12/19 04:05:09;;;;;;;4.63;2.40;;;;;;;6.52;100.00;101532.31;5011444;28;20048;-80
2021/12/19 04:07:36;;;;;;;4.43;2.75;;;;;;;6.49;100.00;101547.25;5062911;28;20088;-79
2021/12/19 04:10:03;;;;;;;8.25;3.05;;;;;;;6.51;100.00;101550.66;5042927;28;20134;-79
2021/12/19 04:12:32;;;;;;;4.95;3.13;;;;;;;6.57;100.00;101551.38;5077302;28;20074;-80
2021/12/19 04:14:59;;;;;;;5.25;2.97;;;;;;;6.56;100.00;101539.16;5042378;28;20143;-79
2021/12/19 04:17:27;;;;;;;5.13;2.83;;;;;;;6.47;100.00;101547.28;5062818;28;20167;-78
2021/12/19 04:19:55;;;;;;;4.90;2.58;;;;;;;6.52;100.00;101550.63;5069857;28;20053;-78
2021/12/19 04:22:23;;;;;;;7.05;3.45;;;;;;;6.55;100.00;101534.84;5082885;28;20052;-79
2021/12/19 04:24:50;;;;;;;5.15;3.22;;;;;;;6.53;100.00;101554.97;5061095;28;20131;-81
2021/12/19 04:27:19;;;;;;;8.30;4.28;;;;;;;6.55;100.00;101547.94;5088083;28;20756;-78
2021/12/19 04:29:49;;;;;;;7.55;3.13;;;;;;;6.52;100.00;101544.53;5081061;28;20072;-78
2021/12/19 04:32:18;;;;;;;8.52;3.30;;;;;;;6.55;100.00;101558.41;5080508;28;20139;-78
2021/12/19 04:34:45;;;;;;;6.43;3.72;;;;;;;6.57;100.00;101556.63;5066278;28;20048;-78
2021/12/19 04:37:38;;;;;;;8.40;3.50;;;;;;;6.56;100.00;101549.63;5067689;28;20139;-80
2021/12/19 04:40:09;;;;;;;7.93;3.92;;;;;;;6.57;100.00;101553.09;5067073;28;20089;-79
2021/12/19 04:51:42;;;;;;;12.57;4.30;;;;;;;6.60;100.00;101540.81;5048025;28;20041;-79
2021/12/19 04:54:28;;;;;;;12.35;3.55;;;;;;;6.62;100.00;101525.09;5056772;28;20072;-79
2021/12/19 05:15:54;;;;;;;11.18;3.90;;;;;;;6.49;100.00;101526.31;5047689;28;20392;-83
2021/12/19 05:18:26;;;;;;;6.88;4.18;;;;;;;6.51;100.00;101527.97;5071330;28;20044;-78
2021/12/19 05:20:58;;;;;;;11.32;4.45;;;;;;;6.48;100.00;101533.28;5043010;28;20036;-79
2021/12/19 05:23:52;;;;;;;8.57;3.55;;;;;;;6.45;100.00;101528.16;5064840;28;20376;-77
2021/12/19 05:26:15;;;;;;;9.75;3.80;;;;;;;6.45;100.00;101525.53;5063447;28;20053;-79
2021/12/19 05:28:42;;;;;;;9.10;3.47;;;;;;;6.46;100.00;101524.63;5068424;28;20050;-79
2021/12/19 05:31:10;;;;;;;14.07;4.20;;;;;;;6.44;100.00;101526.44;5067032;28;20139;-80
2021/12/19 05:33:39;;;;;;;8.32;3.33;;;;;;;6.46;100.00;101521.16;5044569;28;20987;-78
2021/12/19 05:45:11;;;;;;;10.02;3.47;;;;;;;6.43;100.00;101516.00;5063635;28;20067;-80
2021/12/19 05:46:58;;;;;;;8.60;3.30;;;;;;;6.36;100.00;101517.09;5062335;28;20042;-82
2021/12/19 05:49:26;;;;;;;15.95;3.72;;;;;;;6.29;100.00;101516.38;5055336;28;20451;-80
2021/12/19 05:51:54;;;;;;;9.40;3.13;;;;;;;6.30;100.00;101523.31;5070500;28;20561;-79
2021/12/19 05:54:21;;;;;;;14.25;3.78;;;;;;;6.30;100.00;101524.22;5042336;28;20702;-81
2021/12/19 05:56:49;;;;;;;10.00;3.28;;;;;;;6.33;100.00;101520.63;5058620;28;20150;-78
2021/12/19 05:59:16;;;;;;;7.45;2.72;;;;;;;6.29;100.00;101514.63;5031218;28;20115;-78
2021/12/19 06:01:43;;;;;;;11.05;3.13;;;;;;;6.30;100.00;101502.41;5049252;28;20086;-79
2021/12/19 06:04:10;;;;;;;11.77;3.10;;;;;;;6.31;100.00;101499.78;5064741;28;20048;-80
2021/12/19 06:06:38;;;;;;;6.50;3.03;;;;;;;6.36;100.00;101496.19;5049069;28;20591;-78
2021/12/19 06:09:05;;;;;;;9.30;3.55;;;;;;;6.24;100.00;101515.66;5047743;28;20085;-79
2021/12/19 06:11:34;;;;;;;7.95;2.90;;;;;;;6.26;100.00;101509.50;5051632;28;20048;-78
2021/12/19 06:14:01;;;;;;;7.00;2.97;;;;;;;6.22;100.00;101494.78;5060237;28;20127;-79
2021/12/19 06:16:30;;;;;;;10.35;3.58;;;;;;;6.29;100.00;101503.31;5062865;28;20037;-78
2021/12/19 06:18:59;;;;;;;10.23;2.78;;;;;;;6.33;100.00;101499.72;5064340;28;20119;-79
2021/12/19 06:21:28;;;;;;;10.43;3.13;;;;;;;6.34;100.00;101473.50;5078153;28;20139;-78
2021/12/19 06:23:56;;;;;;;8.65;3.10;;;;;;;6.39;100.00;101485.59;5052792;28;20144;-78
2021/12/19 06:26:24;;;;;;;12.68;3.40;;;;;;;6.29;100.00;101478.03;5032756;28;20046;-79
2021/12/19 06:28:58;;;;;;;9.60;2.97;;;;;;;6.23;100.00;101474.72;5046290;28;20125;-81
2021/12/19 06:31:26;;;;;;;11.23;3.38;;;;;;;6.26;100.00;101478.13;5057459;28;20742;-80
2021/12/19 06:33:54;;;;;;;7.78;2.40;;;;;;;6.22;100.00;101484.34;5079462;28;20044;-79
2021/12/19 06:36:24;;;;;;;8.15;2.90;;;;;;;6.24;100.00;101476.44;5038598;28;20045;-79
2021/12/19 06:38:52;;;;;;;10.73;3.28;;;;;;;6.22;100.00;101480.88;5043192;28;20148;-79
2021/12/19 06:41:21;;;;;;;9.00;2.78;;;;;;;6.27;100.00;101463.28;5064346;28;20055;-78
2021/12/19 06:43:49;;;;;;;6.53;2.40;;;;;;;6.27;100.00;101465.91;5061798;28;20049;-80
2021/12/19 06:46:16;;;;;;;9.50;2.50;;;;;;;6.22;100.00;101462.56;5055790;28;20123;-78
2021/12/19 06:48:43;;;;;;;11.90;2.90;;;;;;;6.21;100.00;101464.28;5048950;28;20146;-79
2021/12/19 06:51:12;;;;;;;17.02;4.15;;;;;;;6.17;100.00;101467.91;5028382;28;20093;-79
2021/12/19 06:53:39;;;;;;;7.55;2.60;;;;;;;6.15;100.00;101466.22;5046328;28;20048;-78
2021/12/19 06:56:07;;;;;;;10.60;2.75;;;;;;;6.09;100.00;101462.88;5053418;28;20040;-78
2021/12/19 06:58:35;;;;;;;9.75;2.60;;;;;;;6.11;100.00;101465.44;5079746;28;20059;-79
2021/12/19 07:01:03;;;;;;;7.68;2.10;;;;;;;6.13;100.00;101460.19;5041440;28;20048;-79
2021/12/19 07:03:31;;;;;;;14.48;2.10;;;;;;;6.13;100.00;101465.44;5047004;28;20052;-79
2021/12/19 07:05:59;;;;;;;6.43;2.00;;;;;;;6.19;100.00;101467.88;5060449;28;20405;-79
2021/12/19 07:08:26;;;;;;;6.18;1.50;;;;;;;6.14;100.00;101467.13;5059416;28;20048;-77
2021/12/19 07:10:54;;;;;;;5.70;1.27;;;;;;;6.15;100.00;101458.38;5058171;28;20131;-79
2021/12/19 07:13:22;;;;;;;5.95;1.70;;;;;;;6.18;100.00;101458.31;5052514;28;20556;-78
2021/12/19 07:15:50;;;;;;;7.90;1.58;;;;;;;6.15;100.00;101458.38;5032644;28;20078;-80
2021/12/19 07:18:19;;;;;;;4.57;1.65;;;;;;;6.13;100.00;101450.59;5057025;28;20051;-81
2021/12/19 07:20:48;;;;;;;2.88;1.35;;;;;;;6.12;100.00;101450.63;5058653;28;20048;-79
2021/12/19 07:23:20;;;;;;;7.82;1.33;;;;;;;6.08;100.00;101455.94;5045288;28;20048;-81
2021/12/19 07:25:48;;;;;;;5.65;1.60;;;;;;;6.12;100.00;101450.63;5067569;28;20491;-80
2021/12/19 07:28:15;;;;;;;4.60;1.70;;;;;;;6.14;100.00;101448.84;5044647;28;20119;-83
2021/12/19 07:30:47;;;;;;;7.97;1.45;;;;;;;6.12;100.00;101433.16;5060649;28;20047;-80
2021/12/19 07:33:15;;;;;;;7.45;2.65;;;;;;;6.10;100.00;101440.22;5082519;28;20071;-80
2021/12/19 07:35:44;;;;;;;7.13;1.60;;;;;;;6.11;100.00;101434.06;5045423;28;20044;-81
2021/12/19 07:38:17;;;;;;;4.22;1.55;;;;;;;6.13;100.00;101439.28;5063000;28;20040;-81
2021/12/19 07:40:47;;;;;;;6.18;2.72;;;;;;;6.09;100.00;101423.69;5080248;28;20130;-79
2021/12/19 07:43:15;;;;;;;5.38;2.08;;;;;;;6.02;100.00;101437.81;5064720;28;20086;-80
2021/12/19 07:45:43;;;;;;;6.13;2.42;;;;;;;6.03;100.00;101430.81;5043017;28;20046;-79
2021/12/19 07:48:10;;;;;;;9.32;2.13;;;;;;;6.01;100.00;101425.63;5040501;28;20128;-80
2021/12/19 07:50:38;;;;;;;10.18;2.05;;;;;;;6.01;100.00;101423.03;5044262;28;20043;-80
2021/12/19 07:53:07;;;;;;;10.48;2.30;;;;;;;5.92;100.00;101423.28;5056376;28;20051;-81
2021/12/19 07:55:34;;;;;;;5.15;1.63;;;;;;;5.89;100.00;101423.31;5021671;28;20167;-79
2021/12/19 07:58:02;;;;;;;6.18;2.20;;;;;;;5.95;100.00;101420.59;5007844;28;20494;-79
2021/12/19 08:00:29;;;;;;;5.32;2.25;;;;;;;6.00;100.00;101421.31;5038889;28;20080;-81
2021/12/19 08:02:57;;;;;;;6.78;1.67;;;;;;;5.95;100.00;101420.59;5041095;28;20048;-82
2021/12/19 08:05:26;;;;;;;3.42;1.50;;;;;;;6.01;100.00;101417.78;5057592;28;20158;-79
2021/12/19 08:08:01;;;;;;;5.25;1.60;;;;;;;5.98;100.00;101411.78;5062484;28;20481;-82
2021/12/19 08:13:00;;;;;;;2.97;1.10;;;;;;;5.91;100.00;101392.78;5037928;28;20412;-79
2021/12/19 08:15:31;;;;;;;2.25;0.90;;;;;;;5.87;100.00;101396.38;5066672;28;20178;-79
2021/12/19 08:18:04;;;;;;;4.85;1.33;;;;;;;5.87;100.00;101396.38;5028487;28;20074;-79
2021/12/19 08:20:31;;;;;;;2.50;1.02;;;;;;;5.77;100.00;101398.38;5010386;28;20113;-80
2021/12/19 08:22:59;;;;;;;3.35;1.25;;;;;;;5.74;100.00;101390.63;5006546;28;20077;-80
2021/12/19 08:25:28;;;;;;;6.45;1.40;;;;;;;5.75;100.00;101381.88;5035878;28;20498;-83
2021/12/19 08:27:56;;;;;;;2.60;1.15;;;;;;;5.73;100.00;101378.47;5044101;28;20587;-80
2021/12/19 08:30:25;;;;;;;2.38;1.20;;;;;;;5.77;100.00;101381.84;5040049;28;20053;-77
2021/12/19 08:32:56;;;;;;;3.92;1.00;;;;;;;5.86;100.00;101389.44;5025010;28;20080;-79
2021/12/19 08:35:23;;;;;;;5.75;1.50;;;;;;;5.80;100.00;101382.59;5028910;28;20049;-77
2021/12/19 08:37:53;;;;;;;4.30;1.10;;;;;;;5.80;100.00;101380.00;5003703;28;20255;-78
2021/12/19 08:40:23;;;;;;;4.03;1.13;;;;;;;5.76;100.00;101367.94;5047373;28;20132;-79
2021/12/19 08:42:52;;;;;;;3.40;1.15;;;;;;;5.79;100.00;101372.22;5057811;28;20072;-79
2021/12/19 08:45:24;;;;;;;3.33;1.33;;;;;;;5.77;100.00;101369.66;5024074;28;20048;-81
2021/12/19 08:47:52;;;;;;;1.55;0.85;;;;;;;5.76;100.00;101367.06;5030133;28;20071;-79
2021/12/19 08:50:21;;;;;;;7.35;1.38;;;;;;;5.69;100.00;101373.38;5058618;28;20139;-80
2021/12/19 08:52:52;;;;;;;3.47;1.00;;;;;;;5.70;100.00;101381.16;5059191;28;21923;-79
2021/12/19 08:55:22;;;;;;;6.32;1.30;;;;;;;5.64;100.00;101367.41;5038754;28;20190;-79
2021/12/19 08:57:50;;;;;;;3.55;1.15;;;;;;;5.60;100.00;101374.47;5032170;28;20381;-79
2021/12/19 09:00:18;;;;;;;3.03;0.98;;;;;;;5.57;100.00;101378.00;5080333;28;20062;-80
2021/12/19 09:02:49;;;;;;;2.83;1.23;;;;;;;5.62;100.00;101363.97;5084356;28;20131;-78
2021/12/19 09:05:16;;;;;;;3.22;1.38;;;;;;;5.71;100.00;101363.72;5060665;28;20123;-80
2021/12/19 09:07:45;;;;;;;4.88;1.27;;;;;;;5.70;100.00;101362.00;5065416;28;20078;-79
2021/12/19 09:10:12;;;;;;;4.68;1.58;;;;;;;5.70;100.00;101352.41;5040985;28;20039;-79
2021/12/19 09:12:39;;;;;;;2.33;0.95;;;;;;;5.64;100.00;101351.72;5065030;28;20037;-81
2021/12/19 09:15:07;;;;;;;5.82;1.10;;;;;;;5.57;100.00;101349.25;5059384;28;20048;-80
2021/12/19 09:17:35;;;;;;;4.20;1.33;;;;;;;5.62;100.00;101350.91;5048177;28;20135;-81
2021/12/19 09:20:04;;;;;;;5.82;1.13;;;;;;;5.62;100.00;101343.91;5063858;28;20076;-79
2021/12/19 09:22:33;;;;;;;3.67;1.40;;;;;;;5.65;100.00;101345.59;5050342;28;20127;-79
2021/12/19 09:25:18;;;;;;;3.80;1.63;;;;;;;5.53;100.00;101345.03;5028373;28;20097;-81
2021/12/19 09:27:45;;;;;;;2.78;1.10;;;;;;;5.63;100.00;101339.53;5053040;28;20089;-79
2021/12/19 09:30:13;;;;;;;5.55;1.48;;;;;;;5.59;100.00;101331.81;5046558;28;20147;-79
2021/12/19 09:32:41;;;;;;;2.42;1.15;;;;;;;5.59;100.00;101337.03;5083940;28;20040;-79
2021/12/19 09:35:10;;;;;;;3.88;1.42;;;;;;;5.58;100.00;101340.56;5078315;28;20491;-80
2021/12/19 09:37:37;;;;;;;4.50;1.35;;;;;;;5.61;100.00;101346.59;5048655;28;20132;-78
2021/12/19 09:40:11;;;;;;;3.00;1.10;;;;;;;5.70;100.00;101343.72;5057029;28;20515;-81
2021/12/19 09:42:47;;;;;;;3.90;1.27;;;;;;;5.68;100.00;101335.09;5052936;28;20526;-80
2021/12/19 09:45:20;;;;;;;7.30;1.25;;;;;;;5.69;100.00;101335.03;5023026;28;20075;-79
2021/12/19 09:47:48;;;;;;;11.48;1.98;;;;;;;5.73;100.00;101334.06;5050167;28;20052;-78
2021/12/19 09:50:16;;;;;;;7.18;1.63;;;;;;;5.70;100.00;101333.28;5049742;28;20057;-79
2021/12/19 09:52:45;;;;;;;6.30;1.75;;;;;;;5.69;100.00;101324.59;5044346;28;20032;-81
2021/12/19 09:55:19;;;;;;;6.03;1.70;;;;;;;5.70;100.00;101308.00;5033384;28;20064;-77
2021/12/19 09:57:46;;;;;;;2.17;1.30;;;;;;;5.71;100.00;101314.94;5042835;28;20040;-76
2021/12/19 10:00:14;;;;;;;6.70;2.05;;;;;;;5.69;100.00;101292.38;5073224;28;20516;-79
2021/12/19 10:02:50;;;;;;;8.65;1.73;;;;;;;5.67;100.00;101295.00;5056461;28;20836;-77
2021/12/19 10:05:23;;;;;;;5.65;1.52;;;;;;;5.77;100.00;101293.03;5023503;28;20062;-78
2021/12/19 10:08:01;;;;;;;7.50;2.05;;;;;;;5.76;100.00;101286.94;5059550;28;20932;-78
2021/12/19 10:10:44;;;;;;;5.25;1.42;;;;;;;5.76;100.00;101288.69;5027636;28;20186;-79
2021/12/19 10:13:14;;;;;;;5.30;1.50;;;;;;;5.76;100.00;101273.00;5040462;28;20060;-81
2021/12/19 10:15:44;;;;;;;3.00;1.48;;;;;;;5.81;100.00;101292.03;5039764;28;20544;-80
2021/12/19 10:18:13;;;;;;;6.75;1.38;;;;;;;5.84;100.00;101287.56;5052184;28;20045;-79
2021/12/19 10:20:50;;;;;;;4.43;1.20;;;;;;;5.82;100.00;101283.28;5064551;28;20464;-79
2021/12/19 10:23:21;;;;;;;8.43;2.03;;;;;;;5.80;100.00;101272.00;5037229;28;20049;-80
2021/12/19 10:26:01;;;;;;;2.70;1.15;;;;;;;5.86;100.00;101268.41;5029189;28;20293;-79
2021/12/19 10:28:29;;;;;;;3.13;1.50;;;;;;;5.83;100.00;101279.78;5047649;28;20093;-80
2021/12/19 10:31:01;;;;;;;5.03;1.58;;;;;;;5.83;100.00;101274.56;5028140;28;20051;-82
2021/12/19 10:33:33;;;;;;;3.58;1.60;;;;;;;5.89;100.00;101269.13;5025306;28;20055;-79
2021/12/19 10:36:03;;;;;;;3.58;1.40;;;;;;;5.97;100.00;101269.81;5014356;28;20167;-79
2021/12/19 10:38:32;;;;;;;4.75;1.40;;;;;;;5.88;100.00;101256.13;5042449;28;20517;-78
2021/12/19 10:41:01;;;;;;;6.25;1.40;;;;;;;5.90;100.00;101249.09;5049178;28;20048;-79
2021/12/19 10:43:32;;;;;;;9.13;1.83;;;;;;;5.92;100.00;101257.78;5072029;28;20139;-77
2021/12/19 10:46:02;;;;;;;6.25;1.83;;;;;;;5.95;100.00;101252.47;5042284;28;20576;-79
2021/12/19 10:48:38;;;;;;;6.85;1.60;;;;;;;5.99;100.00;101254.97;5057962;28;20208;-78
2021/12/19 10:51:09;;;;;;;5.03;1.90;;;;;;;5.88;100.00;101256.97;5055069;28;20071;-77
2021/12/19 10:53:45;;;;;;;3.53;1.40;;;;;;;5.89;100.00;101269.13;5054584;28;20549;-76
2021/12/19 10:56:16;;;;;;;12.15;1.83;;;;;;;5.94;100.00;101259.44;5024826;28;20040;-76
2021/12/19 10:58:53;;;;;;;6.55;1.80;;;;;;;5.95;100.00;101255.94;5040508;28;20507;-77
2021/12/19 11:01:31;;;;;;;7.15;1.70;;;;;;;5.96;100.00;101265.50;5050212;28;20055;-79
2021/12/19 11:03:58;;;;;;;5.15;1.40;;;;;;;5.91;100.00;101261.28;5056978;28;20533;-79
2021/12/19 11:06:41;;;;;;;6.10;2.45;;;;;;;5.98;100.00;101254.97;5036961;28;20060;-76
2021/12/19 11:09:18;;;;;;;4.75;1.67;;;;;;;6.10;100.00;101252.00;5052727;28;20835;-76
2021/12/19 11:11:50;;;;;;;4.30;1.42;;;;;;;6.05;100.00;101236.47;5034687;28;20059;-76
2021/12/19 11:14:19;;;;;;;3.70;1.50;;;;;;;6.15;100.00;101220.50;5034573;28;20052;-80
2021/12/19 11:16:48;;;;;;;5.47;1.25;;;;;;;6.21;100.00;101210.69;5076651;28;20055;-77
2021/12/19 11:19:18;;;;;;;4.47;1.40;;;;;;;6.24;100.00;101209.75;5054542;28;20358;-78
2021/12/19 11:22:09;;;;;;;4.25;1.42;;;;;;;6.27;100.00;101207.03;5026094;28;20463;-77
2021/12/19 11:24:38;;;;;;;7.13;1.67;;;;;;;6.33;100.00;101178.06;5039974;28;20075;-75
2021/12/19 11:27:07;;;;;;;5.70;1.58;;;;;;;6.35;100.00;101181.50;5073829;28;20084;-76
2021/12/19 11:29:34;;;;;;;5.15;1.52;;;;;;;6.25;100.00;101191.38;5050071;28;20059;-78
2021/12/19 11:32:06;;;;;;;7.13;1.17;;;;;;;6.26;100.00;101189.63;5052347;28;20145;-78
2021/12/19 11:34:58;;;;;;;6.75;1.33;;;;;;;6.15;100.00;101174.28;5049462;28;20667;-74
2021/12/19 11:37:35;;;;;;;3.55;1.10;;;;;;;6.16;100.00;101164.69;5077568;28;20167;-76
2021/12/19 11:40:04;;;;;;;6.95;1.83;;;;;;;6.19;100.00;101161.97;5056318;28;20066;-75
2021/12/19 11:42:34;;;;;;;4.82;1.67;;;;;;;6.25;100.00;101165.25;5036797;28;20062;-76
2021/12/19 11:45:33;;;;;;;5.20;1.63;;;;;;;6.27;100.00;101149.53;5052914;28;20062;-77
2021/12/19 11:48:09;;;;;;;7.53;1.30;;;;;;;6.31;100.00;101151.13;5055272;28;20054;-77
2021/12/19 11:50:53;;;;;;;9.40;1.58;;;;;;;6.26;100.00;101151.28;5050912;28;20364;-75
2021/12/19 11:53:26;;;;;;;8.30;1.58;;;;;;;6.17;100.00;101143.75;5028614;28;20670;-75
2021/12/19 11:56:09;;;;;;;4.40;1.30;;;;;;;6.08;100.00;101137.06;5041957;28;20044;-75
2021/12/19 11:59:03;;;;;;;8.52;2.00;;;;;;;6.15;100.00;101135.06;5071422;28;20175;-76
2021/12/19 12:01:34;;;;;;;6.32;1.45;;;;;;;6.12;100.00;101139.53;5013423;28;20056;-79
2021/12/19 12:04:13;;;;;;;5.00;1.30;;;;;;;6.01;100.00;101130.28;5049524;28;20048;-78
2021/12/19 12:06:43;;;;;;;7.68;1.92;;;;;;;6.03;100.00;101128.50;5041737;28;20053;-77
2021/12/19 12:09:21;;;;;;;9.05;1.67;;;;;;;5.97;100.00;101126.06;5038285;28;20126;-78
2021/12/19 12:12:04;;;;;;;5.13;1.58;;;;;;;6.03;100.00;101131.13;5052361;28;20440;-78
2021/12/19 12:14:39;;;;;;;3.60;1.27;;;;;;;5.93;100.00;101116.63;5033173;28;20471;-78
2021/12/19 12:17:13;;;;;;;6.95;1.73;;;;;;;6.00;100.00;101122.50;5056875;28;20048;-76
2021/12/19 12:19:53;;;;;;;5.35;1.38;;;;;;;5.99;100.00;101120.78;5028477;28;20105;-78
2021/12/19 12:22:25;;;;;;;8.52;1.50;;;;;;;5.94;100.00;101105.25;5049986;28;20527;-77
2021/12/19 12:25:24;;;;;;;3.95;1.20;;;;;;;5.96;100.00;101097.38;5064810;28;20171;-79
2021/12/19 12:27:55;;;;;;;7.85;1.70;;;;;;;6.03;100.00;101098.88;5056793;28;20456;-75
2021/12/19 12:30:25;;;;;;;10.68;1.60;;;;;;;6.00;100.00;101092.00;5046250;28;20143;-76
2021/12/19 12:32:54;;;;;;;8.75;2.15;;;;;;;6.09;100.00;101094.31;5053703;28;20057;-77
2021/12/19 12:35:22;;;;;;;6.72;1.80;;;;;;;6.00;100.00;101088.53;5050192;28;20582;-79
2021/12/19 12:37:51;;;;;;;5.32;1.30;;;;;;;5.97;100.00;101078.19;5038302;28;20054;-77
2021/12/19 12:40:31;;;;;;;2.97;1.27;;;;;;;5.98;100.00;101069.44;5035979;28;20047;-79